sensor_id;sensor_type;location;lat;lon;timestamp;P1;durP1;ratioP1;P2;durP2;ratioP2
1358;SDS011;673;48.098;14.422;2023-06-10T00:01:37;6.23;;;5.63;;
1358;SDS011;673;48.098;14.422;2023-06-10T00:04:04;7.17;;;6.17;;
1358;SDS011;673;48.098;14.422;2023-06-10T00:06:31;7.03;;;6.40;;
1358;SDS011;673;48.098;14.422;2023-06-10T00:09:02;7.90;;;7.20;;
1358;SDS011;673;48.098;14.422;2023-06-10T00:11:31;7.73;;;7.00;;
1358;SDS011;673;48.098;14.422;2023-06-10T00:13:58;6.37;;;5.83;;
1358;SDS011;673;48.098;14.422;2023-06-10T00:16:25;7.00;;;6.40;;
1358;SDS011;673;48.098;14.422;2023-06-10T00:18:52;8.13;;;7.30;;
1358;SDS011;673;48.098;14.422;2023-06-10T00:21:20;6.93;;;6.43;;
1358;SDS011;673;48.098;14.422;2023-06-10T00:23:49;7.40;;;6.80;;
1358;SDS011;673;48.098;14.422;2023-06-10T00:26:18;8.97;;;8.17;;
1358;SDS011;673;48.098;14.422;2023-06-10T00:28:45;7.67;;;6.97;;
1358;SDS011;673;48.098;14.422;2023-06-10T00:31:12;13.30;;;7.80;;
1358;SDS011;673;48.098;14.422;2023-06-10T00:33:39;8.43;;;6.23;;
1358;SDS011;673;48.098;14.422;2023-06-10T00:36:06;8.30;;;6.80;;
1358;SDS011;673;48.098;14.422;2023-06-10T00:38:33;8.93;;;8.13;;
1358;SDS011;673;48.098;14.422;2023-06-10T00:41:00;8.50;;;7.70;;
1358;SDS011;673;48.098;14.422;2023-06-10T00:43:28;9.80;;;7.87;;
1358;SDS011;673;48.098;14.422;2023-06-10T00:45:55;8.43;;;7.57;;
1358;SDS011;673;48.098;14.422;2023-06-10T00:48:22;8.73;;;7.93;;
1358;SDS011;673;48.098;14.422;2023-06-10T00:50:49;8.90;;;8.00;;
1358;SDS011;673;48.098;14.422;2023-06-10T00:53:16;8.63;;;7.73;;
1358;SDS011;673;48.098;14.422;2023-06-10T00:55:44;9.40;;;8.50;;
1358;SDS011;673;48.098;14.422;2023-06-10T00:58:11;8.47;;;7.77;;
1358;SDS011;673;48.098;14.422;2023-06-10T01:00:40;8.87;;;8.20;;
1358;SDS011;673;48.098;14.422;2023-06-10T01:03:07;8.40;;;7.60;;
1358;SDS011;673;48.098;14.422;2023-06-10T01:05:34;7.97;;;7.27;;
1358;SDS011;673;48.098;14.422;2023-06-10T01:08:03;8.93;;;8.13;;
1358;SDS011;673;48.098;14.422;2023-06-10T01:10:36;10.90;;;8.90;;
1358;SDS011;673;48.098;14.422;2023-06-10T01:13:09;8.40;;;7.53;;
1358;SDS011;673;48.098;14.422;2023-06-10T01:15:38;8.43;;;7.50;;
1358;SDS011;673;48.098;14.422;2023-06-10T01:18:07;10.23;;;7.30;;
1358;SDS011;673;48.098;14.422;2023-06-10T01:20:40;7.60;;;6.80;;
1358;SDS011;673;48.098;14.422;2023-06-10T01:23:10;7.63;;;6.93;;
1358;SDS011;673;48.098;14.422;2023-06-10T01:25:38;8.47;;;7.67;;
1358;SDS011;673;48.098;14.422;2023-06-10T01:28:10;8.23;;;7.53;;
1358;SDS011;673;48.098;14.422;2023-06-10T01:30:42;9.43;;;8.27;;
1358;SDS011;673;48.098;14.422;2023-06-10T01:33:14;9.10;;;8.30;;
1358;SDS011;673;48.098;14.422;2023-06-10T01:35:45;9.63;;;8.37;;
1358;SDS011;673;48.098;14.422;2023-06-10T01:38:15;9.17;;;8.23;;
1358;SDS011;673;48.098;14.422;2023-06-10T01:40:43;10.93;;;9.93;;
1358;SDS011;673;48.098;14.422;2023-06-10T01:43:12;9.67;;;8.87;;
1358;SDS011;673;48.098;14.422;2023-06-10T01:45:39;11.40;;;10.30;;
1358;SDS011;673;48.098;14.422;2023-06-10T01:48:06;9.43;;;8.60;;
1358;SDS011;673;48.098;14.422;2023-06-10T01:50:33;10.20;;;9.17;;
1358;SDS011;673;48.098;14.422;2023-06-10T01:53:00;10.37;;;9.37;;
1358;SDS011;673;48.098;14.422;2023-06-10T01:55:28;11.60;;;10.50;;
1358;SDS011;673;48.098;14.422;2023-06-10T01:57:55;10.97;;;10.07;;
1358;SDS011;673;48.098;14.422;2023-06-10T02:00:22;10.17;;;9.17;;
1358;SDS011;673;48.098;14.422;2023-06-10T02:02:49;9.80;;;8.80;;
1358;SDS011;673;48.098;14.422;2023-06-10T02:05:16;9.83;;;8.73;;
1358;SDS011;673;48.098;14.422;2023-06-10T02:07:43;9.20;;;8.20;;
1358;SDS011;673;48.098;14.422;2023-06-10T02:10:10;11.13;;;10.03;;
1358;SDS011;673;48.098;14.422;2023-06-10T02:12:38;11.17;;;9.47;;
1358;SDS011;673;48.098;14.422;2023-06-10T02:15:05;9.47;;;8.30;;
1358;SDS011;673;48.098;14.422;2023-06-10T02:17:32;12.03;;;9.87;;
1358;SDS011;673;48.098;14.422;2023-06-10T02:19:59;12.10;;;10.90;;
1358;SDS011;673;48.098;14.422;2023-06-10T02:22:32;14.27;;;10.43;;
1358;SDS011;673;48.098;14.422;2023-06-10T02:24:59;9.67;;;8.77;;
1358;SDS011;673;48.098;14.422;2023-06-10T02:27:26;12.10;;;10.80;;
1358;SDS011;673;48.098;14.422;2023-06-10T02:29:55;10.63;;;9.63;;
1358;SDS011;673;48.098;14.422;2023-06-10T02:32:22;10.77;;;9.80;;
1358;SDS011;673;48.098;14.422;2023-06-10T02:34:50;10.17;;;9.27;;
1358;SDS011;673;48.098;14.422;2023-06-10T02:37:17;9.53;;;8.43;;
1358;SDS011;673;48.098;14.422;2023-06-10T02:39:44;10.33;;;9.30;;
1358;SDS011;673;48.098;14.422;2023-06-10T02:42:11;10.77;;;9.87;;
1358;SDS011;673;48.098;14.422;2023-06-10T02:44:38;9.00;;;8.20;;
1358;SDS011;673;48.098;14.422;2023-06-10T02:47:07;10.70;;;9.50;;
1358;SDS011;673;48.098;14.422;2023-06-10T02:49:33;8.40;;;7.70;;
1358;SDS011;673;48.098;14.422;2023-06-10T02:52:00;10.73;;;8.87;;
1358;SDS011;673;48.098;14.422;2023-06-10T02:54:28;10.87;;;9.77;;
1358;SDS011;673;48.098;14.422;2023-06-10T02:56:55;9.70;;;8.70;;
1358;SDS011;673;48.098;14.422;2023-06-10T02:59:21;10.23;;;9.23;;
1358;SDS011;673;48.098;14.422;2023-06-10T03:01:48;9.77;;;8.97;;
1358;SDS011;673;48.098;14.422;2023-06-10T03:04:17;10.30;;;9.40;;
1358;SDS011;673;48.098;14.422;2023-06-10T03:06:44;10.43;;;9.47;;
1358;SDS011;673;48.098;14.422;2023-06-10T03:09:12;13.07;;;10.17;;
1358;SDS011;673;48.098;14.422;2023-06-10T03:11:39;11.60;;;10.33;;
1358;SDS011;673;48.098;14.422;2023-06-10T03:14:06;13.97;;;10.37;;
1358;SDS011;673;48.098;14.422;2023-06-10T03:16:33;11.10;;;10.07;;
1358;SDS011;673;48.098;14.422;2023-06-10T03:19:00;11.33;;;9.90;;
1358;SDS011;673;48.098;14.422;2023-06-10T03:21:28;10.40;;;9.30;;
1358;SDS011;673;48.098;14.422;2023-06-10T03:23:55;12.13;;;10.90;;
1358;SDS011;673;48.098;14.422;2023-06-10T03:26:22;12.50;;;11.27;;
1358;SDS011;673;48.098;14.422;2023-06-10T03:28:49;9.63;;;8.50;;
1358;SDS011;673;48.098;14.422;2023-06-10T03:31:16;9.50;;;8.50;;
1358;SDS011;673;48.098;14.422;2023-06-10T03:33:43;8.63;;;7.83;;
1358;SDS011;673;48.098;14.422;2023-06-10T03:36:10;8.50;;;7.90;;
1358;SDS011;673;48.098;14.422;2023-06-10T03:38:39;9.73;;;8.57;;
1358;SDS011;673;48.098;14.422;2023-06-10T03:41:06;8.53;;;7.73;;
1358;SDS011;673;48.098;14.422;2023-06-10T03:43:33;9.27;;;8.47;;
1358;SDS011;673;48.098;14.422;2023-06-10T03:45:59;8.87;;;7.90;;
1358;SDS011;673;48.098;14.422;2023-06-10T03:48:26;10.43;;;8.87;;
1358;SDS011;673;48.098;14.422;2023-06-10T03:50:53;9.67;;;8.77;;
1358;SDS011;673;48.098;14.422;2023-06-10T03:53:20;10.80;;;9.20;;
1358;SDS011;673;48.098;14.422;2023-06-10T03:55:48;9.43;;;8.40;;
1358;SDS011;673;48.098;14.422;2023-06-10T03:58:15;9.37;;;8.47;;
1358;SDS011;673;48.098;14.422;2023-06-10T04:00:43;9.77;;;8.77;;
1358;SDS011;673;48.098;14.422;2023-06-10T04:03:10;9.33;;;8.53;;
1358;SDS011;673;48.098;14.422;2023-06-10T04:05:39;8.87;;;8.00;;
1358;SDS011;673;48.098;14.422;2023-06-10T04:08:07;10.37;;;9.13;;
1358;SDS011;673;48.098;14.422;2023-06-10T04:10:34;8.30;;;7.60;;
1358;SDS011;673;48.098;14.422;2023-06-10T04:13:03;9.43;;;8.37;;
1358;SDS011;673;48.098;14.422;2023-06-10T04:15:30;8.73;;;8.03;;
1358;SDS011;673;48.098;14.422;2023-06-10T04:17:58;9.07;;;8.27;;
1358;SDS011;673;48.098;14.422;2023-06-10T04:20:26;8.60;;;7.80;;
1358;SDS011;673;48.098;14.422;2023-06-10T04:22:54;10.60;;;9.60;;
1358;SDS011;673;48.098;14.422;2023-06-10T04:25:21;8.57;;;7.90;;
1358;SDS011;673;48.098;14.422;2023-06-10T04:27:49;9.43;;;8.43;;
1358;SDS011;673;48.098;14.422;2023-06-10T04:30:17;10.83;;;9.30;;
1358;SDS011;673;48.098;14.422;2023-06-10T04:32:44;9.73;;;8.87;;
1358;SDS011;673;48.098;14.422;2023-06-10T04:35:12;11.83;;;9.97;;
1358;SDS011;673;48.098;14.422;2023-06-10T04:37:39;9.40;;;8.47;;
1358;SDS011;673;48.098;14.422;2023-06-10T04:40:06;11.07;;;9.37;;
1358;SDS011;673;48.098;14.422;2023-06-10T04:42:34;14.23;;;9.93;;
1358;SDS011;673;48.098;14.422;2023-06-10T04:45:01;9.90;;;9.00;;
1358;SDS011;673;48.098;14.422;2023-06-10T04:47:31;10.47;;;9.20;;
1358;SDS011;673;48.098;14.422;2023-06-10T04:49:59;11.17;;;10.00;;
1358;SDS011;673;48.098;14.422;2023-06-10T04:52:26;10.50;;;9.50;;
1358;SDS011;673;48.098;14.422;2023-06-10T04:54:53;10.47;;;9.37;;
1358;SDS011;673;48.098;14.422;2023-06-10T04:57:20;10.63;;;9.53;;
1358;SDS011;673;48.098;14.422;2023-06-10T04:59:47;8.93;;;8.13;;
1358;SDS011;673;48.098;14.422;2023-06-10T05:02:14;9.90;;;8.70;;
1358;SDS011;673;48.098;14.422;2023-06-10T05:04:42;9.90;;;9.03;;
1358;SDS011;673;48.098;14.422;2023-06-10T05:07:09;8.93;;;8.17;;
1358;SDS011;673;48.098;14.422;2023-06-10T05:09:36;9.20;;;8.30;;
1358;SDS011;673;48.098;14.422;2023-06-10T05:12:04;9.50;;;8.70;;
1358;SDS011;673;48.098;14.422;2023-06-10T05:14:31;10.20;;;9.30;;
1358;SDS011;673;48.098;14.422;2023-06-10T05:16:58;10.10;;;9.20;;
1358;SDS011;673;48.098;14.422;2023-06-10T05:19:25;9.73;;;8.83;;
1358;SDS011;673;48.098;14.422;2023-06-10T05:21:54;8.23;;;7.53;;
1358;SDS011;673;48.098;14.422;2023-06-10T05:24:20;8.77;;;8.13;;
1358;SDS011;673;48.098;14.422;2023-06-10T05:26:48;9.10;;;8.40;;
1358;SDS011;673;48.098;14.422;2023-06-10T05:29:15;8.37;;;7.60;;
1358;SDS011;673;48.098;14.422;2023-06-10T05:31:42;9.50;;;8.33;;
1358;SDS011;673;48.098;14.422;2023-06-10T05:34:09;8.90;;;8.00;;
1358;SDS011;673;48.098;14.422;2023-06-10T05:36:36;9.57;;;8.77;;
1358;SDS011;673;48.098;14.422;2023-06-10T05:39:04;8.50;;;7.60;;
1358;SDS011;673;48.098;14.422;2023-06-10T05:41:31;9.13;;;8.33;;
1358;SDS011;673;48.098;14.422;2023-06-10T05:43:58;9.10;;;8.30;;
1358;SDS011;673;48.098;14.422;2023-06-10T05:46:25;9.50;;;8.77;;
1358;SDS011;673;48.098;14.422;2023-06-10T05:48:52;9.87;;;8.70;;
1358;SDS011;673;48.098;14.422;2023-06-10T05:51:19;9.33;;;8.47;;
1358;SDS011;673;48.098;14.422;2023-06-10T05:53:46;9.13;;;8.40;;
1358;SDS011;673;48.098;14.422;2023-06-10T05:56:14;9.23;;;8.50;;
1358;SDS011;673;48.098;14.422;2023-06-10T05:58:41;8.50;;;7.80;;
1358;SDS011;673;48.098;14.422;2023-06-10T06:01:08;8.93;;;8.13;;
1358;SDS011;673;48.098;14.422;2023-06-10T06:03:35;8.27;;;7.57;;
1358;SDS011;673;48.098;14.422;2023-06-10T06:06:02;8.60;;;7.90;;
1358;SDS011;673;48.098;14.422;2023-06-10T06:08:30;6.17;;;5.73;;
1358;SDS011;673;48.098;14.422;2023-06-10T06:10:57;7.33;;;6.67;;
1358;SDS011;673;48.098;14.422;2023-06-10T06:13:25;7.30;;;6.70;;
1358;SDS011;673;48.098;14.422;2023-06-10T06:15:52;6.97;;;6.27;;
1358;SDS011;673;48.098;14.422;2023-06-10T06:18:19;6.20;;;5.70;;
1358;SDS011;673;48.098;14.422;2023-06-10T06:20:46;6.73;;;6.13;;
1358;SDS011;673;48.098;14.422;2023-06-10T06:23:13;6.37;;;5.87;;
1358;SDS011;673;48.098;14.422;2023-06-10T06:25:40;7.40;;;6.70;;
1358;SDS011;673;48.098;14.422;2023-06-10T06:28:07;6.67;;;6.10;;
1358;SDS011;673;48.098;14.422;2023-06-10T06:30:36;6.87;;;6.33;;
1358;SDS011;673;48.098;14.422;2023-06-10T06:33:03;6.30;;;5.80;;
1358;SDS011;673;48.098;14.422;2023-06-10T06:35:30;7.00;;;6.37;;
1358;SDS011;673;48.098;14.422;2023-06-10T06:37:59;6.77;;;6.27;;
1358;SDS011;673;48.098;14.422;2023-06-10T06:40:25;7.60;;;6.30;;
1358;SDS011;673;48.098;14.422;2023-06-10T06:42:52;5.77;;;5.37;;
1358;SDS011;673;48.098;14.422;2023-06-10T06:45:19;5.80;;;5.30;;
1358;SDS011;673;48.098;14.422;2023-06-10T06:47:48;6.27;;;5.67;;
1358;SDS011;673;48.098;14.422;2023-06-10T06:50:15;6.67;;;6.17;;
1358;SDS011;673;48.098;14.422;2023-06-10T06:52:42;6.93;;;6.33;;
1358;SDS011;673;48.098;14.422;2023-06-10T06:55:09;6.23;;;5.80;;
1358;SDS011;673;48.098;14.422;2023-06-10T06:57:36;6.83;;;6.23;;
1358;SDS011;673;48.098;14.422;2023-06-10T07:00:03;6.40;;;5.80;;
1358;SDS011;673;48.098;14.422;2023-06-10T07:02:31;8.70;;;6.40;;
1358;SDS011;673;48.098;14.422;2023-06-10T07:04:59;9.83;;;5.90;;
1358;SDS011;673;48.098;14.422;2023-06-10T07:07:26;6.20;;;5.70;;
1358;SDS011;673;48.098;14.422;2023-06-10T07:09:53;8.13;;;7.33;;
1358;SDS011;673;48.098;14.422;2023-06-10T07:12:20;8.27;;;7.63;;
1358;SDS011;673;48.098;14.422;2023-06-10T07:14:49;6.40;;;5.90;;
1358;SDS011;673;48.098;14.422;2023-06-10T07:17:16;7.17;;;6.57;;
1358;SDS011;673;48.098;14.422;2023-06-10T07:19:43;8.33;;;7.63;;
1358;SDS011;673;48.098;14.422;2023-06-10T07:22:12;8.77;;;7.87;;
1358;SDS011;673;48.098;14.422;2023-06-10T07:24:38;8.10;;;7.30;;
1358;SDS011;673;48.098;14.422;2023-06-10T07:27:05;7.93;;;7.23;;
1358;SDS011;673;48.098;14.422;2023-06-10T07:29:33;7.97;;;7.27;;
1358;SDS011;673;48.098;14.422;2023-06-10T07:32:01;8.83;;;8.13;;
1358;SDS011;673;48.098;14.422;2023-06-10T07:34:28;9.37;;;8.47;;
1358;SDS011;673;48.098;14.422;2023-06-10T07:36:55;10.07;;;7.40;;
1358;SDS011;673;48.098;14.422;2023-06-10T07:39:24;9.60;;;7.77;;
1358;SDS011;673;48.098;14.422;2023-06-10T07:41:51;7.93;;;7.33;;
1358;SDS011;673;48.098;14.422;2023-06-10T07:44:19;9.37;;;8.57;;
1358;SDS011;673;48.098;14.422;2023-06-10T07:46:46;9.10;;;8.30;;
1358;SDS011;673;48.098;14.422;2023-06-10T07:49:13;9.93;;;9.13;;
1358;SDS011;673;48.098;14.422;2023-06-10T07:51:40;8.20;;;7.40;;
1358;SDS011;673;48.098;14.422;2023-06-10T07:54:07;7.90;;;7.20;;
1358;SDS011;673;48.098;14.422;2023-06-10T07:56:35;9.07;;;8.17;;
1358;SDS011;673;48.098;14.422;2023-06-10T07:59:02;9.17;;;8.40;;
1358;SDS011;673;48.098;14.422;2023-06-10T08:01:29;7.97;;;7.37;;
1358;SDS011;673;48.098;14.422;2023-06-10T08:03:58;7.50;;;6.90;;
1358;SDS011;673;48.098;14.422;2023-06-10T08:06:25;7.80;;;7.20;;
1358;SDS011;673;48.098;14.422;2023-06-10T08:08:51;8.23;;;7.33;;
1358;SDS011;673;48.098;14.422;2023-06-10T08:11:18;7.73;;;7.00;;
1358;SDS011;673;48.098;14.422;2023-06-10T08:13:47;8.80;;;8.10;;
1358;SDS011;673;48.098;14.422;2023-06-10T08:16:14;11.13;;;7.43;;
1358;SDS011;673;48.098;14.422;2023-06-10T08:18:40;7.50;;;6.80;;
1358;SDS011;673;48.098;14.422;2023-06-10T08:21:07;6.73;;;6.13;;
1358;SDS011;673;48.098;14.422;2023-06-10T08:23:34;6.90;;;6.30;;
1358;SDS011;673;48.098;14.422;2023-06-10T08:26:01;7.23;;;6.60;;
1358;SDS011;673;48.098;14.422;2023-06-10T08:28:28;6.03;;;5.53;;
1358;SDS011;673;48.098;14.422;2023-06-10T08:30:57;6.37;;;5.87;;
1358;SDS011;673;48.098;14.422;2023-06-10T08:33:24;7.50;;;6.80;;
1358;SDS011;673;48.098;14.422;2023-06-10T08:35:51;6.77;;;6.27;;
1358;SDS011;673;48.098;14.422;2023-06-10T08:38:17;9.23;;;7.00;;
1358;SDS011;673;48.098;14.422;2023-06-10T08:40:44;5.93;;;5.47;;
1358;SDS011;673;48.098;14.422;2023-06-10T08:43:15;5.53;;;5.13;;
1358;SDS011;673;48.098;14.422;2023-06-10T08:45:47;6.53;;;6.03;;
1358;SDS011;673;48.098;14.422;2023-06-10T08:48:16;5.90;;;5.40;;
1358;SDS011;673;48.098;14.422;2023-06-10T08:50:45;8.40;;;7.67;;
1358;SDS011;673;48.098;14.422;2023-06-10T08:53:14;5.33;;;4.93;;
1358;SDS011;673;48.098;14.422;2023-06-10T08:55:45;5.83;;;5.33;;
1358;SDS011;673;48.098;14.422;2023-06-10T08:58:17;7.17;;;5.77;;
1358;SDS011;673;48.098;14.422;2023-06-10T09:00:44;7.30;;;6.17;;
1358;SDS011;673;48.098;14.422;2023-06-10T09:03:12;5.20;;;4.80;;
1358;SDS011;673;48.098;14.422;2023-06-10T09:05:40;6.50;;;5.93;;
1358;SDS011;673;48.098;14.422;2023-06-10T09:08:09;6.30;;;5.70;;
1358;SDS011;673;48.098;14.422;2023-06-10T09:10:36;4.63;;;4.27;;
1358;SDS011;673;48.098;14.422;2023-06-10T09:13:03;5.00;;;4.60;;
1358;SDS011;673;48.098;14.422;2023-06-10T09:15:31;4.40;;;4.00;;
1358;SDS011;673;48.098;14.422;2023-06-10T09:17:58;5.90;;;5.50;;
1358;SDS011;673;48.098;14.422;2023-06-10T09:20:25;5.07;;;4.70;;
1358;SDS011;673;48.098;14.422;2023-06-10T09:22:54;6.67;;;6.07;;
1358;SDS011;673;48.098;14.422;2023-06-10T09:25:21;4.90;;;4.50;;
1358;SDS011;673;48.098;14.422;2023-06-10T09:28:02;5.80;;;5.37;;
1358;SDS011;673;48.098;14.422;2023-06-10T09:30:29;6.67;;;5.83;;
1358;SDS011;673;48.098;14.422;2023-06-10T09:32:57;4.40;;;4.10;;
1358;SDS011;673;48.098;14.422;2023-06-10T09:35:25;5.43;;;5.03;;
1358;SDS011;673;48.098;14.422;2023-06-10T09:37:55;5.60;;;5.20;;
1358;SDS011;673;48.098;14.422;2023-06-10T09:40:23;5.70;;;5.30;;
1358;SDS011;673;48.098;14.422;2023-06-10T09:42:52;5.67;;;5.27;;
1358;SDS011;673;48.098;14.422;2023-06-10T09:45:21;4.90;;;4.40;;
1358;SDS011;673;48.098;14.422;2023-06-10T09:47:51;5.27;;;4.87;;
1358;SDS011;673;48.098;14.422;2023-06-10T09:50:18;6.00;;;5.50;;
1358;SDS011;673;48.098;14.422;2023-06-10T09:52:45;6.27;;;5.77;;
1358;SDS011;673;48.098;14.422;2023-06-10T09:55:14;5.63;;;5.13;;
1358;SDS011;673;48.098;14.422;2023-06-10T09:57:41;5.17;;;4.77;;
1358;SDS011;673;48.098;14.422;2023-06-10T10:00:13;4.77;;;4.47;;
1358;SDS011;673;48.098;14.422;2023-06-10T10:02:45;4.63;;;4.33;;
1358;SDS011;673;48.098;14.422;2023-06-10T10:05:13;4.77;;;4.37;;
1358;SDS011;673;48.098;14.422;2023-06-10T10:07:41;4.70;;;4.30;;
1358;SDS011;673;48.098;14.422;2023-06-10T10:10:08;4.00;;;3.70;;
1358;SDS011;673;48.098;14.422;2023-06-10T10:12:37;5.77;;;5.27;;
1358;SDS011;673;48.098;14.422;2023-06-10T10:15:05;3.87;;;3.57;;
1358;SDS011;673;48.098;14.422;2023-06-10T10:17:34;4.00;;;3.80;;
1358;SDS011;673;48.098;14.422;2023-06-10T10:20:04;5.63;;;5.23;;
1358;SDS011;673;48.098;14.422;2023-06-10T10:22:34;5.70;;;5.20;;
1358;SDS011;673;48.098;14.422;2023-06-10T10:25:05;4.40;;;4.10;;
1358;SDS011;673;48.098;14.422;2023-06-10T10:27:40;5.50;;;3.87;;
1358;SDS011;673;48.098;14.422;2023-06-10T10:30:10;5.83;;;4.10;;
1358;SDS011;673;48.098;14.422;2023-06-10T10:32:40;3.97;;;3.77;;
1358;SDS011;673;48.098;14.422;2023-06-10T10:35:14;3.20;;;3.00;;
1358;SDS011;673;48.098;14.422;2023-06-10T10:37:43;3.57;;;3.37;;
1358;SDS011;673;48.098;14.422;2023-06-10T10:40:11;3.93;;;3.63;;
1358;SDS011;673;48.098;14.422;2023-06-10T10:42:41;4.63;;;4.33;;
1358;SDS011;673;48.098;14.422;2023-06-10T10:45:09;4.57;;;4.27;;
1358;SDS011;673;48.098;14.422;2023-06-10T10:47:36;4.23;;;3.93;;
1358;SDS011;673;48.098;14.422;2023-06-10T10:50:12;3.77;;;3.53;;
1358;SDS011;673;48.098;14.422;2023-06-10T10:52:50;4.17;;;3.97;;
1358;SDS011;673;48.098;14.422;2023-06-10T10:55:19;3.90;;;3.60;;
1358;SDS011;673;48.098;14.422;2023-06-10T10:57:54;3.87;;;3.60;;
1358;SDS011;673;48.098;14.422;2023-06-10T11:00:29;3.20;;;3.00;;
1358;SDS011;673;48.098;14.422;2023-06-10T11:03:03;4.23;;;3.93;;
1358;SDS011;673;48.098;14.422;2023-06-10T11:05:36;3.97;;;3.60;;
1358;SDS011;673;48.098;14.422;2023-06-10T11:08:05;2.83;;;2.63;;
1358;SDS011;673;48.098;14.422;2023-06-10T11:10:33;3.83;;;3.60;;
1358;SDS011;673;48.098;14.422;2023-06-10T11:13:06;3.33;;;3.00;;
1358;SDS011;673;48.098;14.422;2023-06-10T11:15:37;3.60;;;3.30;;
1358;SDS011;673;48.098;14.422;2023-06-10T11:18:12;4.10;;;3.90;;
1358;SDS011;673;48.098;14.422;2023-06-10T11:20:44;3.93;;;3.73;;
1358;SDS011;673;48.098;14.422;2023-06-10T11:23:33;2.90;;;2.70;;
1358;SDS011;673;48.098;14.422;2023-06-10T11:26:14;7.87;;;3.00;;
1358;SDS011;673;48.098;14.422;2023-06-10T11:31:29;3.40;;;3.20;;
1358;SDS011;673;48.098;14.422;2023-06-10T11:33:58;3.87;;;3.60;;
1358;SDS011;673;48.098;14.422;2023-06-10T11:36:26;3.77;;;3.47;;
1358;SDS011;673;48.098;14.422;2023-06-10T11:38:55;3.30;;;3.10;;
1358;SDS011;673;48.098;14.422;2023-06-10T11:41:23;3.97;;;3.67;;
1358;SDS011;673;48.098;14.422;2023-06-10T11:43:52;3.57;;;3.37;;
1358;SDS011;673;48.098;14.422;2023-06-10T11:46:22;3.27;;;3.07;;
1358;SDS011;673;48.098;14.422;2023-06-10T11:48:49;3.40;;;3.20;;
1358;SDS011;673;48.098;14.422;2023-06-10T11:51:17;3.90;;;3.60;;
1358;SDS011;673;48.098;14.422;2023-06-10T11:53:44;5.47;;;3.67;;
1358;SDS011;673;48.098;14.422;2023-06-10T11:56:11;3.70;;;3.50;;
1358;SDS011;673;48.098;14.422;2023-06-10T11:58:39;5.13;;;3.40;;
1358;SDS011;673;48.098;14.422;2023-06-10T12:01:11;4.90;;;4.50;;
1358;SDS011;673;48.098;14.422;2023-06-10T12:03:46;4.37;;;4.07;;
1358;SDS011;673;48.098;14.422;2023-06-10T12:06:14;3.20;;;3.00;;
1358;SDS011;673;48.098;14.422;2023-06-10T12:08:41;5.03;;;4.10;;
1358;SDS011;673;48.098;14.422;2023-06-10T12:11:09;3.40;;;3.10;;
1358;SDS011;673;48.098;14.422;2023-06-10T12:13:37;4.00;;;3.70;;
1358;SDS011;673;48.098;14.422;2023-06-10T12:16:13;3.57;;;3.27;;
1358;SDS011;673;48.098;14.422;2023-06-10T12:18:41;4.53;;;4.23;;
1358;SDS011;673;48.098;14.422;2023-06-10T12:21:17;4.70;;;4.40;;
1358;SDS011;673;48.098;14.422;2023-06-10T12:24:04;5.20;;;3.37;;
1358;SDS011;673;48.098;14.422;2023-06-10T12:26:41;3.80;;;3.60;;
1358;SDS011;673;48.098;14.422;2023-06-10T12:29:16;4.70;;;3.50;;
1358;SDS011;673;48.098;14.422;2023-06-10T12:31:55;4.23;;;3.93;;
1358;SDS011;673;48.098;14.422;2023-06-10T12:34:30;3.33;;;3.13;;
1358;SDS011;673;48.098;14.422;2023-06-10T12:36:59;2.90;;;2.70;;
1358;SDS011;673;48.098;14.422;2023-06-10T12:39:27;3.67;;;3.37;;
1358;SDS011;673;48.098;14.422;2023-06-10T12:41:54;3.57;;;3.27;;
1358;SDS011;673;48.098;14.422;2023-06-10T12:44:34;2.50;;;2.13;;
1358;SDS011;673;48.098;14.422;2023-06-10T12:47:06;2.73;;;2.60;;
1358;SDS011;673;48.098;14.422;2023-06-10T12:49:35;4.13;;;3.20;;
1358;SDS011;673;48.098;14.422;2023-06-10T12:52:03;4.40;;;4.10;;
1358;SDS011;673;48.098;14.422;2023-06-10T12:54:30;5.30;;;4.23;;
1358;SDS011;673;48.098;14.422;2023-06-10T12:56:58;4.53;;;2.93;;
1358;SDS011;673;48.098;14.422;2023-06-10T12:59:26;12.23;;;5.23;;
1358;SDS011;673;48.098;14.422;2023-06-10T13:01:53;9.80;;;7.23;;
1358;SDS011;673;48.098;14.422;2023-06-10T13:04:20;9.90;;;7.00;;
1358;SDS011;673;48.098;14.422;2023-06-10T13:06:48;14.40;;;6.37;;
1358;SDS011;673;48.098;14.422;2023-06-10T13:09:16;9.17;;;7.43;;
1358;SDS011;673;48.098;14.422;2023-06-10T13:11:43;15.73;;;8.73;;
1358;SDS011;673;48.098;14.422;2023-06-10T13:14:10;11.20;;;8.60;;
1358;SDS011;673;48.098;14.422;2023-06-10T13:16:37;10.37;;;9.17;;
1358;SDS011;673;48.098;14.422;2023-06-10T13:19:05;10.47;;;8.90;;
1358;SDS011;673;48.098;14.422;2023-06-10T13:21:32;8.53;;;6.80;;
1358;SDS011;673;48.098;14.422;2023-06-10T13:23:59;7.73;;;5.93;;
1358;SDS011;673;48.098;14.422;2023-06-10T13:26:28;7.70;;;6.90;;
1358;SDS011;673;48.098;14.422;2023-06-10T13:28:57;6.80;;;6.30;;
1358;SDS011;673;48.098;14.422;2023-06-10T13:31:23;6.33;;;5.73;;
1358;SDS011;673;48.098;14.422;2023-06-10T13:33:50;7.27;;;6.50;;
1358;SDS011;673;48.098;14.422;2023-06-10T13:36:18;7.10;;;6.50;;
1358;SDS011;673;48.098;14.422;2023-06-10T13:38:45;8.17;;;7.40;;
1358;SDS011;673;48.098;14.422;2023-06-10T13:41:12;8.27;;;7.57;;
1358;SDS011;673;48.098;14.422;2023-06-10T13:43:41;8.33;;;7.63;;
1358;SDS011;673;48.098;14.422;2023-06-10T13:46:08;7.27;;;6.57;;
1358;SDS011;673;48.098;14.422;2023-06-10T13:48:35;7.97;;;7.20;;
1358;SDS011;673;48.098;14.422;2023-06-10T13:51:02;9.40;;;8.50;;
1358;SDS011;673;48.098;14.422;2023-06-10T13:53:29;8.50;;;7.80;;
1358;SDS011;673;48.098;14.422;2023-06-10T13:55:56;8.30;;;7.43;;
1358;SDS011;673;48.098;14.422;2023-06-10T13:58:23;9.40;;;8.60;;
1358;SDS011;673;48.098;14.422;2023-06-10T14:00:51;8.63;;;7.47;;
1358;SDS011;673;48.098;14.422;2023-06-10T14:03:18;8.97;;;8.00;;
1358;SDS011;673;48.098;14.422;2023-06-10T14:05:45;10.97;;;9.87;;
1358;SDS011;673;48.098;14.422;2023-06-10T14:08:12;10.97;;;9.67;;
1358;SDS011;673;48.098;14.422;2023-06-10T14:10:39;10.00;;;9.00;;
1358;SDS011;673;48.098;14.422;2023-06-10T14:13:06;9.00;;;8.07;;
1358;SDS011;673;48.098;14.422;2023-06-10T14:15:33;9.70;;;8.77;;
1358;SDS011;673;48.098;14.422;2023-06-10T14:18:01;11.57;;;9.57;;
1358;SDS011;673;48.098;14.422;2023-06-10T14:20:28;9.60;;;8.80;;
1358;SDS011;673;48.098;14.422;2023-06-10T14:22:56;11.73;;;10.63;;
1358;SDS011;673;48.098;14.422;2023-06-10T14:25:24;11.90;;;10.80;;
1358;SDS011;673;48.098;14.422;2023-06-10T14:27:51;10.53;;;9.63;;
1358;SDS011;673;48.098;14.422;2023-06-10T14:30:18;10.87;;;9.97;;
1358;SDS011;673;48.098;14.422;2023-06-10T14:32:45;10.77;;;9.80;;
1358;SDS011;673;48.098;14.422;2023-06-10T14:35:13;10.80;;;8.80;;
1358;SDS011;673;48.098;14.422;2023-06-10T14:37:40;12.23;;;9.10;;
1358;SDS011;673;48.098;14.422;2023-06-10T14:40:07;9.47;;;8.77;;
1358;SDS011;673;48.098;14.422;2023-06-10T14:42:35;8.77;;;7.97;;
1358;SDS011;673;48.098;14.422;2023-06-10T14:45:02;10.63;;;8.87;;
1358;SDS011;673;48.098;14.422;2023-06-10T14:47:30;9.70;;;8.90;;
1358;SDS011;673;48.098;14.422;2023-06-10T14:49:57;10.73;;;9.47;;
1358;SDS011;673;48.098;14.422;2023-06-10T14:52:26;11.50;;;8.80;;
1358;SDS011;673;48.098;14.422;2023-06-10T14:54:53;11.67;;;10.67;;
1358;SDS011;673;48.098;14.422;2023-06-10T14:57:19;11.43;;;10.23;;
1358;SDS011;673;48.098;14.422;2023-06-10T14:59:46;10.27;;;9.37;;
1358;SDS011;673;48.098;14.422;2023-06-10T15:02:13;10.80;;;9.80;;
1358;SDS011;673;48.098;14.422;2023-06-10T15:04:40;10.27;;;9.37;;
1358;SDS011;673;48.098;14.422;2023-06-10T15:07:07;10.47;;;9.47;;
1358;SDS011;673;48.098;14.422;2023-06-10T15:09:35;12.97;;;9.70;;
1358;SDS011;673;48.098;14.422;2023-06-10T15:12:02;9.33;;;8.63;;
1358;SDS011;673;48.098;14.422;2023-06-10T15:14:30;10.73;;;9.73;;
1358;SDS011;673;48.098;14.422;2023-06-10T15:16:57;9.60;;;8.70;;
1358;SDS011;673;48.098;14.422;2023-06-10T15:19:25;11.27;;;10.17;;
1358;SDS011;673;48.098;14.422;2023-06-10T15:21:52;10.97;;;10.07;;